Time;durP1;ratioP1;P1;durP2;ratioP2;P2;SDS_P1;SDS_P2;PMS_P1;PMS_P2;Temp;Humidity;BMP_temperature;BMP_pressure;BME280_temperature;BME280_humidity;BME280_pressure;Samples;Min_cycle;Max_cycle;Signal;HPM_P1;HPM_P2
2023/03/29 00:01:31;;;;;;;5.50;1.03;;;;;;;-2.23;71.51;98439.28;6152112;28;20325;-44
2023/03/29 00:04:37;;;;;;;3.13;0.90;;;;;;;-2.52;71.28;98402.03;6147248;28;20237;-44
2023/03/29 00:07:40;;;;;;;2.83;0.97;;;;;;;-2.39;71.25;98426.84;6128329;28;20238;-43
2023/03/29 00:10:42;;;;;;;1.73;1.07;;;;;;;-2.43;71.50;98441.13;6145575;28;20678;-43
2023/03/29 00:13:44;;;;;;;1.80;0.90;;;;;;;-2.43;71.89;98456.78;6147316;28;20238;-45
2023/03/29 00:16:46;;;;;;;4.80;1.00;;;;;;;-2.44;72.31;98441.28;6145014;28;20238;-44
2023/03/29 00:19:48;;;;;;;3.07;0.97;;;;;;;-2.44;72.37;98438.66;6144251;28;20718;-43
2023/03/29 00:22:50;;;;;;;1.80;0.73;;;;;;;-2.48;72.10;98448.56;6146243;28;20784;-43
2023/03/29 00:25:53;;;;;;;1.93;0.80;;;;;;;-2.59;72.62;98440.91;6148960;28;20245;-43
2023/03/29 00:28:55;;;;;;;1.77;0.70;;;;;;;-2.56;72.42;98445.84;6146599;28;20307;-43
2023/03/29 00:31:57;;;;;;;0.80;0.73;;;;;;;-2.57;72.73;98443.34;6127520;28;20605;-44
2023/03/29 00:35:00;;;;;;;2.93;0.87;;;;;;;-2.63;72.85;98452.56;6145492;28;20233;-43
2023/03/29 00:38:04;;;;;;;3.03;1.17;;;;;;;-2.67;72.88;98453.78;6145383;28;20245;-44
2023/03/29 00:41:08;;;;;;;3.73;1.00;;;;;;;-2.69;73.08;98466.16;6136095;28;20233;-44
2023/03/29 00:44:47;;;;;;;2.73;1.03;;;;;;;-2.74;73.14;98455.31;6158660;28;20269;-45
2023/03/29 00:47:57;;;;;;;3.87;1.20;;;;;;;-2.74;73.11;98460.53;6146469;28;20370;-45
2023/03/29 00:51:04;;;;;;;4.07;1.33;;;;;;;-2.76;73.15;98465.06;6145618;28;20242;-43
2023/03/29 00:54:14;;;;;;;3.80;1.33;;;;;;;-2.84;73.06;98463.16;6132101;28;20230;-46
2023/03/29 00:57:19;;;;;;;5.07;1.27;;;;;;;-3.10;73.35;98421.19;6113009;28;20211;-45
2023/03/29 01:00:27;;;;;;;3.60;1.03;;;;;;;-2.95;74.03;98445.88;6148820;28;20237;-44
2023/03/29 01:03:40;;;;;;;3.80;1.40;;;;;;;-2.94;73.90;98449.28;6149386;28;20313;-46
2023/03/29 01:06:48;;;;;;;4.03;1.00;;;;;;;-2.93;73.78;98443.13;6159514;28;20245;-47
2023/03/29 01:09:57;;;;;;;2.63;0.90;;;;;;;-2.94;73.90;98446.69;6143448;28;20242;-44
2023/03/29 01:13:05;;;;;;;3.80;1.17;;;;;;;-3.35;74.32;98380.84;6143968;28;20260;-44
2023/03/29 01:16:10;;;;;;;4.47;1.10;;;;;;;-2.92;74.46;98434.34;6154198;28;20716;-46
2023/03/29 01:19:17;;;;;;;3.10;0.80;;;;;;;-2.86;73.73;98429.41;6143127;28;20246;-44
2023/03/29 01:22:37;;;;;;;2.27;0.90;;;;;;;-2.83;73.56;98422.25;6148165;28;20709;-44
2023/03/29 01:26:18;;;;;;;4.03;0.90;;;;;;;-2.87;74.17;98429.53;6143628;28;20241;-44
2023/03/29 01:29:24;;;;;;;2.20;1.17;;;;;;;-2.90;74.72;98432.44;6143976;28;20230;-44
2023/03/29 01:32:34;;;;;;;3.73;1.20;;;;;;;-2.87;74.31;98422.53;6143925;28;20241;-44
2023/03/29 01:35:44;;;;;;;2.83;1.00;;;;;;;-2.88;74.49;98420.06;6152561;28;20245;-44
2023/03/29 01:39:03;;;;;;;2.50;0.90;;;;;;;-2.96;74.79;98417.31;6159092;28;20223;-45
2023/03/29 01:42:45;;;;;;;1.97;1.00;;;;;;;-3.07;74.75;98409.66;6149063;28;20288;-43
2023/03/29 01:46:06;;;;;;;7.77;1.30;;;;;;;-3.09;75.56;98416.78;6141987;28;20256;-45
2023/03/29 01:49:26;;;;;;;3.40;1.00;;;;;;;-3.36;75.46;98381.78;6162772;28;20747;-46
2023/03/29 01:52:34;;;;;;;5.27;1.40;;;;;;;-3.19;75.24;98391.56;6150877;28;20359;-45
2023/03/29 01:55:46;;;;;;;1.80;1.23;;;;;;;-3.14;74.90;98412.81;6159584;28;20230;-48
2023/03/29 01:58:53;;;;;;;2.70;1.00;;;;;;;-3.22;74.86;98411.84;6145619;28;20229;-44
2023/03/29 02:02:00;;;;;;;2.30;0.90;;;;;;;-3.29;75.10;98405.53;6160501;28;20656;-46
2023/03/29 02:05:02;;;;;;;2.40;0.93;;;;;;;-3.44;75.15;98389.50;6146967;28;20277;-45
2023/03/29 02:08:08;;;;;;;4.00;1.00;;;;;;;-3.44;75.21;98405.13;6111729;28;20242;-46
2023/03/29 02:11:10;;;;;;;4.60;1.10;;;;;;;-3.50;75.50;98410.84;6134628;28;20320;-48
2023/03/29 02:14:12;;;;;;;3.00;0.90;;;;;;;-3.48;75.31;98411.56;6159085;28;20616;-49
2023/03/29 02:17:19;;;;;;;4.17;1.43;;;;;;;-3.70;74.77;98373.53;6146342;28;20592;-48
2023/03/29 02:20:29;;;;;;;1.70;1.00;;;;;;;-3.47;75.11;98403.59;6126004;28;20633;-49
2023/03/29 02:23:40;;;;;;;6.17;1.20;;;;;;;-3.47;74.73;98405.38;6144165;28;20234;-48
2023/03/29 02:26:42;;;;;;;2.97;0.97;;;;;;;-3.80;75.21;98362.28;6147389;28;20248;-43
2023/03/29 02:29:46;;;;;;;2.17;0.90;;;;;;;-3.65;75.28;98402.59;6131234;28;20773;-45
2023/03/29 02:33:09;;;;;;;1.93;0.80;;;;;;;-3.71;75.65;98410.94;6155213;28;20323;-43
2023/03/29 02:36:17;;;;;;;2.53;1.10;;;;;;;-3.68;75.68;98413.28;6147841;28;20245;-43
2023/03/29 02:39:21;;;;;;;1.40;0.70;;;;;;;-3.66;75.60;98411.38;6131602;28;20649;-44
2023/03/29 02:42:26;;;;;;;2.17;0.90;;;;;;;-3.65;75.64;98413.00;6150766;28;20230;-44
2023/03/29 02:45:30;;;;;;;5.60;1.00;;;;;;;-3.65;75.57;98406.03;6131290;28;20948;-43
2023/03/29 02:48:36;;;;;;;2.63;0.80;;;;;;;-3.68;76.15;98406.31;6140083;28;20230;-45
2023/03/29 02:51:38;;;;;;;3.00;1.00;;;;;;;-3.91;75.96;98358.03;6147499;28;20226;-44
2023/03/29 02:54:44;;;;;;;2.17;0.83;;;;;;;-3.56;76.07;98408.78;6148194;28;20351;-43
2023/03/29 02:57:46;;;;;;;4.60;1.03;;;;;;;-3.87;76.44;98356.81;6148202;28;20332;-44
2023/03/29 03:00:49;;;;;;;3.73;0.87;;;;;;;-3.81;76.21;98366.66;6138480;28;20233;-43
2023/03/29 03:03:51;;;;;;;2.70;1.10;;;;;;;-3.53;76.41;98404.13;6147768;28;20245;-43
2023/03/29 03:06:54;;;;;;;2.20;1.00;;;;;;;-3.49;76.13;98399.50;6162375;28;20270;-43
2023/03/29 03:09:56;;;;;;;4.43;1.00;;;;;;;-3.68;76.02;98374.25;6130450;28;20376;-43
2023/03/29 03:12:58;;;;;;;5.13;0.77;;;;;;;-3.49;76.33;98395.09;6162208;28;20252;-44
2023/03/29 03:16:03;;;;;;;3.73;1.30;;;;;;;-3.52;76.08;98389.34;6132739;28;20373;-44
2023/03/29 03:19:06;;;;;;;2.83;0.80;;;;;;;-3.51;76.30;98383.97;6144447;28;20238;-43
2023/03/29 03:22:08;;;;;;;2.60;1.07;;;;;;;-3.52;75.86;98379.72;6147359;28;20246;-44
2023/03/29 03:25:10;;;;;;;2.10;1.07;;;;;;;-3.58;76.59;98366.44;6133512;28;20631;-43
2023/03/29 03:28:13;;;;;;;0.77;0.70;;;;;;;-3.48;76.68;98386.31;6145812;28;20724;-48
2023/03/29 03:31:16;;;;;;;2.97;0.80;;;;;;;-3.47;76.76;98389.75;6129264;28;21262;-45
2023/03/29 03:34:45;;;;;;;5.23;1.07;;;;;;;-3.40;76.38;98377.81;6147752;28;20605;-44
2023/03/29 03:37:47;;;;;;;5.67;0.83;;;;;;;-3.40;76.40;98386.47;6132259;28;20749;-44
2023/03/29 03:40:55;;;;;;;3.53;1.03;;;;;;;-3.41;76.65;98377.00;6146426;28;20246;-43
2023/03/29 03:43:58;;;;;;;1.80;0.90;;;;;;;-3.42;76.74;98377.13;6149617;28;20234;-44
2023/03/29 03:47:00;;;;;;;5.17;0.90;;;;;;;-3.44;76.55;98371.25;6129385;28;20277;-45
2023/03/29 03:50:04;;;;;;;1.80;0.80;;;;;;;-3.48;76.64;98368.09;6129467;28;20238;-44
2023/03/29 03:53:06;;;;;;;1.63;0.83;;;;;;;-3.49;76.86;98369.06;6146403;28;20861;-45
2023/03/29 03:56:28;;;;;;;2.40;0.87;;;;;;;-3.59;77.52;98355.22;6149165;28;20237;-43
2023/03/29 03:59:40;;;;;;;5.03;0.97;;;;;;;-3.50;77.23;98363.97;6152415;28;20285;-43
2023/03/29 04:02:47;;;;;;;3.17;0.80;;;;;;;-3.46;76.93;98360.13;6128378;28;20241;-43
2023/03/29 04:05:49;;;;;;;1.20;0.80;;;;;;;-3.46;76.88;98347.94;6137004;28;20234;-44
2023/03/29 04:08:53;;;;;;;2.30;1.10;;;;;;;-3.64;77.22;98326.16;6128467;28;20230;-44
2023/03/29 04:12:08;;;;;;;1.77;0.90;;;;;;;-3.48;77.41;98351.66;6145709;28;20230;-43
2023/03/29 04:15:12;;;;;;;4.37;1.17;;;;;;;-3.49;77.43;98347.41;6129803;28;20301;-45
2023/03/29 04:18:22;;;;;;;2.50;0.80;;;;;;;-3.44;77.31;98348.63;6158976;28;20253;-43
2023/03/29 04:21:28;;;;;;;4.17;0.80;;;;;;;-3.42;77.09;98349.31;6143840;28;20237;-44
2023/03/29 04:24:30;;;;;;;3.90;1.37;;;;;;;-3.42;77.50;98341.50;6130210;28;20273;-43
2023/03/29 04:28:06;;;;;;;4.47;1.20;;;;;;;-3.40;76.86;98341.34;6113912;28;21211;-45
2023/03/29 04:31:28;;;;;;;1.83;0.70;;;;;;;-3.43;77.01;98339.03;6121088;28;20246;-44
2023/03/29 04:34:45;;;;;;;1.93;0.70;;;;;;;-3.46;77.25;98339.31;6134288;28;20254;-48
2023/03/29 04:37:49;;;;;;;2.00;0.80;;;;;;;-3.46;77.40;98331.47;6141686;28;20269;-45
2023/03/29 04:40:54;;;;;;;1.70;1.17;;;;;;;-3.63;77.44;98306.97;6128606;28;20231;-44
2023/03/29 04:44:02;;;;;;;3.27;0.97;;;;;;;-3.63;77.23;98314.78;6145935;28;20243;-48
2023/03/29 04:47:05;;;;;;;3.83;1.47;;;;;;;-3.38;77.47;98345.47;6128716;28;20860;-45
2023/03/29 04:50:40;;;;;;;4.00;1.00;;;;;;;-3.31;76.75;98355.34;6141907;28;20238;-45
2023/03/29 04:53:42;;;;;;;2.03;1.00;;;;;;;-3.30;76.80;98354.38;6146675;28;20252;-46
2023/03/29 04:56:44;;;;;;;3.50;0.90;;;;;;;-3.43;76.93;98318.19;6127620;28;20253;-43
2023/03/29 05:00:13;;;;;;;4.13;0.80;;;;;;;-3.31;77.65;98350.94;6151303;28;20225;-44
2023/03/29 05:03:44;;;;;;;1.43;0.90;;;;;;;-3.22;77.09;98336.28;6127633;28;20261;-46
2023/03/29 05:06:53;;;;;;;1.77;0.93;;;;;;;-3.13;77.05;98336.28;6127625;28;20238;-44
2023/03/29 05:09:55;;;;;;;3.80;0.90;;;;;;;-3.12;76.54;98322.28;6127481;28;20282;-46
2023/03/29 05:12:58;;;;;;;1.40;1.00;;;;;;;-2.83;76.97;98346.66;6159749;28;20238;-48
2023/03/29 05:16:03;;;;;;;2.13;0.97;;;;;;;-2.83;76.93;98321.41;6143478;28;20238;-49
2023/03/29 05:19:05;;;;;;;3.53;1.50;;;;;;;-2.69;76.61;98330.56;6142366;28;20333;-49
2023/03/29 05:22:10;;;;;;;3.27;1.13;;;;;;;-2.55;76.57;98331.91;6148843;28;20277;-49
2023/03/29 05:25:12;;;;;;;1.40;0.90;;;;;;;-2.88;75.81;98269.69;6141744;28;20230;-48
2023/03/29 05:28:17;;;;;;;4.80;1.00;;;;;;;-2.38;76.02;98323.31;6160574;28;20702;-43
2023/03/29 05:31:19;;;;;;;4.27;1.40;;;;;;;-2.34;75.44;98312.44;6144011;28;20234;-43
2023/03/29 05:34:26;;;;;;;3.80;1.23;;;;;;;-2.41;76.25;98293.13;6147865;28;20245;-44
2023/03/29 05:37:33;;;;;;;3.87;0.90;;;;;;;-2.20;75.56;98321.56;6143349;28;20237;-44
2023/03/29 05:40:36;;;;;;;4.57;1.13;;;;;;;-2.15;75.18;98318.53;6127044;28;20598;-44
2023/03/29 05:44:07;;;;;;;2.40;1.00;;;;;;;-2.22;75.53;98315.66;6125794;28;20248;-44
2023/03/29 05:47:10;;;;;;;2.70;1.50;;;;;;;-2.13;75.58;98327.84;6126555;28;20238;-45
2023/03/29 05:50:13;;;;;;;2.70;1.10;;;;;;;-2.10;75.69;98324.94;6145761;28;20268;-45
2023/03/29 05:53:16;;;;;;;1.13;0.77;;;;;;;-2.06;75.78;98330.72;6125720;28;20253;-44
2023/03/29 05:56:18;;;;;;;4.00;1.13;;;;;;;-1.98;75.01;98325.56;6134434;28;20424;-44
2023/03/29 05:59:22;;;;;;;4.00;0.93;;;;;;;-1.90;74.23;98328.28;6149666;28;20721;-44
2023/03/29 06:02:25;;;;;;;3.77;1.10;;;;;;;-1.75;74.34;98336.44;6148928;28;20236;-44
2023/03/29 06:05:27;;;;;;;1.73;0.80;;;;;;;-1.61;73.07;98329.88;6143866;28;20260;-44
2023/03/29 06:08:33;;;;;;;2.20;0.80;;;;;;;-1.46;70.64;98330.19;6150728;28;20233;-44
2023/03/29 06:12:00;;;;;;;2.37;1.10;;;;;;;-1.28;70.62;98322.31;6143346;28;20238;-45
2023/03/29 06:15:12;;;;;;;2.83;0.90;;;;;;;-1.18;69.20;98323.91;6135448;28;20235;-44
2023/03/29 06:18:19;;;;;;;1.57;0.67;;;;;;;-1.00;68.72;98330.88;6151351;28;20768;-44
2023/03/29 06:21:22;;;;;;;2.07;0.70;;;;;;;-0.88;67.93;98327.88;6147583;28;20261;-44
2023/03/29 06:24:24;;;;;;;2.40;0.80;;;;;;;-0.71;67.71;98323.56;6130435;28;20233;-47
2023/03/29 06:27:35;;;;;;;4.37;0.80;;;;;;;-0.58;67.50;98321.34;6130493;28;20240;-44
2023/03/29 06:30:37;;;;;;;1.33;0.70;;;;;;;-0.36;67.16;98333.06;6131184;28;20234;-44
2023/03/29 06:33:42;;;;;;;1.27;0.80;;;;;;;-0.41;66.74;98303.91;6141149;28;20323;-47
2023/03/29 06:37:02;;;;;;;0.77;0.70;;;;;;;-0.06;67.14;98334.34;6147443;28;20396;-45
2023/03/29 06:40:05;;;;;;;6.83;0.90;;;;;;;0.04;67.00;98339.44;6146720;28;21005;-44
2023/03/29 06:43:14;;;;;;;4.23;1.07;;;;;;;0.11;67.49;98329.16;6131826;28;20621;-46
2023/03/29 06:46:26;;;;;;;1.03;0.70;;;;;;;0.27;67.49;98334.44;6152253;28;20242;-45
2023/03/29 06:49:30;;;;;;;3.50;0.90;;;;;;;0.52;66.47;98332.69;6147914;28;20272;-46
2023/03/29 06:52:45;;;;;;;3.47;1.10;;;;;;;0.80;66.51;98335.03;6130434;28;20241;-46
2023/03/29 06:55:48;;;;;;;2.47;0.90;;;;;;;1.10;68.12;98331.72;6130503;28;20313;-47
2023/03/29 06:59:06;;;;;;;3.40;1.00;;;;;;;1.41;67.09;98326.59;6154079;28;21023;-45
2023/03/29 07:02:16;;;;;;;1.90;0.70;;;;;;;1.65;66.75;98322.25;6152717;28;20230;-44
2023/03/29 07:05:22;;;;;;;2.23;0.90;;;;;;;1.88;65.21;98332.88;6162504;28;20393;-45
2023/03/29 07:08:29;;;;;;;3.33;1.10;;;;;;;1.96;64.09;98317.88;6131561;28;20237;-48
2023/03/29 07:11:35;;;;;;;2.10;0.90;;;;;;;2.33;64.26;98327.69;6162923;28;20250;-49
2023/03/29 07:14:55;;;;;;;2.43;0.90;;;;;;;2.62;63.05;98320.97;6130867;28;20245;-45
2023/03/29 07:18:03;;;;;;;2.50;0.93;;;;;;;2.88;61.17;98325.03;6144011;28;20248;-48
2023/03/29 07:21:07;;;;;;;3.70;1.50;;;;;;;3.11;57.39;98323.19;6145677;28;20217;-45
2023/03/29 07:24:09;;;;;;;3.60;0.97;;;;;;;3.27;54.45;98325.66;6161160;28;20227;-47
2023/03/29 07:27:12;;;;;;;2.37;1.33;;;;;;;3.43;53.06;98322.06;6128024;28;20607;-46
2023/03/29 07:30:16;;;;;;;1.97;0.80;;;;;;;3.63;52.45;98320.50;6149523;28;20359;-49
2023/03/29 07:33:18;;;;;;;2.10;1.20;;;;;;;3.87;51.80;98327.31;6146087;28;20324;-46
2023/03/29 07:36:33;;;;;;;4.50;1.30;;;;;;;4.03;51.46;98321.03;6129010;28;20227;-46
2023/03/29 07:39:36;;;;;;;7.53;1.10;;;;;;;4.14;49.71;98322.41;6129733;28;20763;-46
2023/03/29 07:42:57;;;;;;;10.07;1.27;;;;;;;4.24;49.98;98322.13;6149544;28;20630;-46
2023/03/29 07:46:04;;;;;;;3.77;1.50;;;;;;;4.27;49.27;98319.91;6146013;28;20606;-50
2023/03/29 07:49:08;;;;;;;2.37;1.23;;;;;;;4.29;48.85;98323.19;6129305;28;20436;-47
2023/03/29 07:52:11;;;;;;;2.90;1.13;;;;;;;4.36;50.05;98321.44;6129338;28;20308;-49
2023/03/29 07:55:14;;;;;;;4.77;1.60;;;;;;;4.45;49.35;98318.69;6147804;28;20273;-46
2023/03/29 07:58:29;;;;;;;3.50;1.17;;;;;;;4.62;49.75;98312.97;6129689;28;20234;-47
2023/03/29 08:01:31;;;;;;;2.10;0.97;;;;;;;4.79;46.71;98310.09;6156091;28;20233;-46
2023/03/29 08:04:36;;;;;;;2.53;1.27;;;;;;;4.83;45.79;98306.06;6145721;28;20581;-51
2023/03/29 08:08:01;;;;;;;3.40;1.60;;;;;;;4.87;46.05;98297.56;6144854;28;20243;-46
2023/03/29 08:11:33;;;;;;;4.30;1.43;;;;;;;4.99;45.64;98305.00;6144874;28;20265;-48
2023/03/29 08:14:37;;;;;;;2.47;1.00;;;;;;;5.02;45.46;98302.75;6145454;28;20239;-49
2023/03/29 08:18:00;;;;;;;3.10;1.40;;;;;;;5.22;45.62;98299.47;6127823;28;20609;-49
2023/03/29 08:21:03;;;;;;;2.77;1.10;;;;;;;5.40;45.07;98305.91;6146316;28;20241;-48
2023/03/29 08:24:06;;;;;;;2.20;1.20;;;;;;;5.53;43.79;98305.19;6134323;28;20227;-46
2023/03/29 08:27:18;;;;;;;1.90;1.23;;;;;;;5.53;44.15;98296.44;6146763;28;20230;-48
2023/03/29 08:30:21;;;;;;;4.33;1.40;;;;;;;5.46;44.14;98295.56;6144680;28;20219;-46
2023/03/29 08:33:24;;;;;;;2.67;1.93;;;;;;;5.58;45.07;98299.31;6145564;28;20240;-49
2023/03/29 08:36:42;;;;;;;2.60;1.43;;;;;;;5.72;45.24;98305.50;6151846;28;20759;-49
2023/03/29 08:40:01;;;;;;;1.47;1.17;;;;;;;5.84;43.48;98309.22;6126770;28;20244;-48
2023/03/29 08:43:13;;;;;;;5.33;1.90;;;;;;;5.83;42.22;98297.00;6145180;28;20244;-49
2023/03/29 08:47:27;;;;;;;4.23;1.63;;;;;;;5.90;43.18;98293.38;6059572;29;20279;-49
2023/03/29 08:50:39;;;;;;;4.47;1.53;;;;;;;5.80;43.52;98253.25;6070729;28;20359;-49
2023/03/29 08:53:49;;;;;;;2.97;1.73;;;;;;;6.20;42.51;98287.81;6134422;28;20238;-50
2023/03/29 08:57:05;;;;;;;6.17;1.50;;;;;;;6.15;43.24;98287.59;6167127;28;20245;-50
2023/03/29 09:00:21;;;;;;;3.87;1.53;;;;;;;6.15;42.96;98290.25;6163660;28;20228;-50
2023/03/29 09:03:29;;;;;;;6.07;1.70;;;;;;;6.27;43.42;98291.31;6121723;28;20230;-51
2023/03/29 09:06:38;;;;;;;3.13;1.40;;;;;;;6.40;43.22;98290.50;6133388;28;20232;-50
2023/03/29 09:09:49;;;;;;;3.10;1.50;;;;;;;6.49;43.01;98291.16;6151855;28;20262;-50
2023/03/29 09:13:25;;;;;;;3.47;1.67;;;;;;;6.50;42.69;98293.59;6138857;28;20237;-50
2023/03/29 09:16:42;;;;;;;5.37;2.00;;;;;;;6.52;42.56;98293.41;6152260;28;20238;-50
2023/03/29 09:20:21;;;;;;;3.73;1.70;;;;;;;6.44;42.11;98297.03;6150006;28;20228;-44
2023/03/29 09:23:35;;;;;;;3.07;1.97;;;;;;;6.49;42.20;98299.09;6148591;28;20241;-47
2023/03/29 09:27:15;;;;;;;5.30;1.60;;;;;;;6.47;42.52;98294.00;6144940;28;20228;-46
2023/03/29 09:30:34;;;;;;;4.10;2.07;;;;;;;6.45;41.94;98283.63;6126933;28;20233;-45
2023/03/29 09:33:45;;;;;;;4.70;1.90;;;;;;;6.39;42.69;98284.41;6130853;28;20230;-46
2023/03/29 09:36:57;;;;;;;4.63;1.67;;;;;;;6.41;42.17;98289.53;6146091;28;20845;-47
2023/03/29 09:40:03;;;;;;;3.07;1.43;;;;;;;6.41;41.94;98292.16;6147704;28;20232;-45
2023/03/29 09:43:30;;;;;;;1.47;1.30;;;;;;;6.44;43.39;98289.09;6145932;28;20241;-46
2023/03/29 09:46:40;;;;;;;6.77;2.07;;;;;;;6.55;43.01;98293.00;6150773;28;20718;-46
2023/03/29 09:49:47;;;;;;;3.37;2.00;;;;;;;6.52;42.72;98277.53;6145488;28;20237;-46
2023/03/29 09:52:49;;;;;;;4.90;2.00;;;;;;;6.58;42.45;98290.78;6132675;28;20229;-45
2023/03/29 09:55:55;;;;;;;5.33;2.27;;;;;;;6.64;42.75;98291.78;6141130;28;20234;-45
2023/03/29 09:59:12;;;;;;;5.47;1.80;;;;;;;6.66;42.20;98287.13;6144179;28;20284;-44
2023/03/29 10:02:14;;;;;;;4.53;1.63;;;;;;;6.64;41.41;98270.63;6150507;28;20820;-48
2023/03/29 10:05:17;;;;;;;4.43;1.80;;;;;;;6.59;41.54;98297.69;6130987;28;20247;-45
2023/03/29 10:08:34;;;;;;;6.73;2.13;;;;;;;6.34;42.11;98286.84;6127890;28;20327;-46
2023/03/29 10:11:38;;;;;;;3.73;1.80;;;;;;;6.10;42.76;98304.06;6149391;28;20688;-46
2023/03/29 10:14:44;;;;;;;5.30;1.87;;;;;;;6.04;42.55;98288.97;6144940;28;20599;-44
2023/03/29 10:17:47;;;;;;;3.87;1.80;;;;;;;5.90;42.84;98282.78;6150073;28;20673;-44
2023/03/29 10:20:49;;;;;;;3.40;2.13;;;;;;;6.22;42.68;98282.34;6148378;28;20242;-45
2023/03/29 10:23:58;;;;;;;3.30;1.70;;;;;;;6.22;43.53;98293.75;6144401;28;20245;-45
2023/03/29 10:27:05;;;;;;;6.13;2.17;;;;;;;6.18;43.29;98289.84;6144279;28;20299;-46
2023/03/29 10:30:11;;;;;;;2.73;1.70;;;;;;;6.26;42.79;98278.28;6147773;28;20239;-48
2023/03/29 10:33:20;;;;;;;5.10;2.00;;;;;;;6.24;42.82;98272.38;6143617;28;20252;-46
2023/03/29 10:36:25;;;;;;;3.43;1.80;;;;;;;6.32;43.83;98283.59;6152800;28;20232;-45
2023/03/29 10:39:32;;;;;;;6.03;2.17;;;;;;;6.48;44.23;98279.75;6143867;28;20668;-46
2023/03/29 10:42:34;;;;;;;6.13;1.80;;;;;;;6.62;44.09;98276.13;6142843;28;20225;-45
2023/03/29 10:45:38;;;;;;;2.63;1.53;;;;;;;6.80;44.02;98270.25;6143499;28;20254;-46
2023/03/29 10:48:46;;;;;;;3.97;1.23;;;;;;;6.78;46.23;98260.84;6148851;28;20308;-45
2023/03/29 10:51:49;;;;;;;2.33;1.50;;;;;;;6.69;47.93;98282.22;6147603;28;20255;-46
2023/03/29 10:54:54;;;;;;;2.80;1.30;;;;;;;6.68;48.14;98274.50;6150841;28;20735;-45
2023/03/29 10:58:05;;;;;;;1.73;0.90;;;;;;;6.64;48.97;98270.63;6149400;28;20637;-47
2023/03/29 11:01:16;;;;;;;2.40;0.93;;;;;;;6.38;50.64;98261.63;6150188;28;20336;-46
2023/03/29 11:04:46;;;;;;;2.40;0.90;;;;;;;6.39;51.24;98257.94;6147834;28;20612;-47
2023/03/29 11:08:28;;;;;;;3.87;1.10;;;;;;;6.25;53.34;98260.75;6150523;28;20242;-47
2023/03/29 11:12:10;;;;;;;1.73;1.00;;;;;;;6.38;53.71;98261.63;6151697;28;20652;-47
2023/03/29 11:15:26;;;;;;;1.00;0.90;;;;;;;6.14;53.59;98256.88;6149712;28;20632;-49
2023/03/29 11:19:13;;;;;;;3.27;1.60;;;;;;;5.90;55.08;98259.00;6144157;28;20233;-46
2023/03/29 11:23:12;;;;;;;1.70;1.13;;;;;;;6.00;56.06;98249.91;6146673;28;20256;-46
2023/03/29 11:26:41;;;;;;;2.37;1.27;;;;;;;5.84;56.34;98253.69;6080235;29;20425;-46
2023/03/29 11:30:05;;;;;;;2.30;1.37;;;;;;;5.87;57.26;98238.25;6084840;29;20288;-45
2023/03/29 11:33:16;;;;;;;2.13;1.37;;;;;;;6.04;56.52;98240.56;6084455;29;20740;-45
2023/03/29 11:36:56;;;;;;;2.67;1.63;;;;;;;6.12;57.54;98240.41;6084557;29;20226;-46
2023/03/29 11:40:09;;;;;;;2.43;1.60;;;;;;;5.98;57.05;98236.06;6082201;29;20863;-47
2023/03/29 11:43:21;;;;;;;3.23;1.80;;;;;;;5.66;59.07;98241.84;6084326;29;20244;-48
2023/03/29 11:46:41;;;;;;;2.00;1.53;;;;;;;5.47;60.72;98239.91;6084092;29;20319;-47
2023/03/29 11:49:51;;;;;;;3.00;1.73;;;;;;;5.24;61.71;98202.38;6080682;29;20341;-45
2023/03/29 11:53:00;;;;;;;2.60;1.50;;;;;;;5.34;61.31;98231.91;6084819;29;20267;-45
2023/03/29 11:56:14;;;;;;;4.30;1.40;;;;;;;5.34;62.74;98226.63;6102912;28;20323;-45
2023/03/29 11:59:40;;;;;;;2.53;1.80;;;;;;;5.26;62.95;98217.00;6151951;28;20237;-46
2023/03/29 12:03:01;;;;;;;2.60;2.07;;;;;;;5.20;62.25;98219.63;6145962;28;20269;-46
2023/03/29 12:06:15;;;;;;;4.27;1.63;;;;;;;5.29;62.55;98218.47;6145721;28;20369;-45
2023/03/29 12:09:32;;;;;;;2.40;1.60;;;;;;;5.38;62.28;98204.91;6133151;28;20208;-49
2023/03/29 12:12:51;;;;;;;3.73;1.67;;;;;;;5.65;62.54;98215.56;6151233;28;20242;-48
2023/03/29 12:16:05;;;;;;;1.93;1.30;;;;;;;5.63;62.19;98199.13;6149756;28;20260;-46
2023/03/29 12:19:22;;;;;;;1.33;1.23;;;;;;;5.60;62.59;98208.22;6098107;28;20318;-46
2023/03/29 12:22:25;;;;;;;3.03;1.50;;;;;;;5.61;62.52;98195.84;6102984;28;20245;-48
2023/03/29 12:25:40;;;;;;;1.57;1.20;;;;;;;5.46;62.89;98192.50;6102608;28;20235;-46
2023/03/29 12:28:47;;;;;;;1.50;1.10;;;;;;;5.38;64.38;98198.78;6103693;28;20250;-47
2023/03/29 12:32:18;;;;;;;2.20;1.50;;;;;;;5.26;63.87;98203.78;6098634;28;20234;-45
2023/03/29 12:35:58;;;;;;;1.20;1.10;;;;;;;5.09;64.12;98194.56;6102625;28;20321;-48
2023/03/29 12:39:20;;;;;;;1.50;1.03;;;;;;;4.99;66.53;98189.63;6092875;28;20238;-46
2023/03/29 12:43:05;;;;;;;2.87;1.10;;;;;;;4.93;65.28;98187.78;6118624;29;20275;-46
2023/03/29 12:46:32;;;;;;;1.43;1.00;;;;;;;4.89;67.17;98175.97;6103366;28;20264;-48
2023/03/29 12:49:37;;;;;;;1.93;1.03;;;;;;;4.88;66.90;98184.91;6102231;28;20330;-45
2023/03/29 12:52:41;;;;;;;2.77;1.20;;;;;;;4.96;66.39;98165.44;6098823;28;20264;-49
2023/03/29 12:55:43;;;;;;;1.37;1.13;;;;;;;4.97;66.54;98169.69;6098845;28;20332;-46
2023/03/29 12:59:04;;;;;;;2.63;1.13;;;;;;;4.94;67.00;98165.63;6097751;28;20325;-45
2023/03/29 13:02:16;;;;;;;1.20;1.00;;;;;;;4.96;66.68;98168.88;6104078;28;20232;-48
2023/03/29 13:05:57;;;;;;;1.37;1.00;;;;;;;5.00;67.26;98169.31;6110740;28;20327;-46
2023/03/29 13:09:22;;;;;;;1.20;0.93;;;;;;;4.99;68.50;98167.69;6099668;28;20794;-49
2023/03/29 13:12:27;;;;;;;1.77;0.80;;;;;;;4.97;68.38;98159.13;6099554;28;20605;-47
2023/03/29 13:15:33;;;;;;;1.97;1.00;;;;;;;4.71;68.26;98130.75;6097705;28;20232;-48
2023/03/29 13:19:05;;;;;;;1.00;0.90;;;;;;;4.90;68.88;98159.91;6139303;28;20233;-47
2023/03/29 13:22:26;;;;;;;1.73;1.00;;;;;;;4.95;68.95;98158.53;6148485;28;20237;-50
2023/03/29 13:25:44;;;;;;;1.00;0.80;;;;;;;4.91;69.47;98158.09;6151997;28;20273;-51
2023/03/29 13:29:08;;;;;;;0.73;0.60;;;;;;;4.92;70.17;98157.88;6148325;28;20733;-47
2023/03/29 13:32:39;;;;;;;0.70;0.67;;;;;;;4.92;70.76;98141.22;6150060;28;20237;-51
2023/03/29 13:35:47;;;;;;;0.57;0.57;;;;;;;4.98;70.18;98137.84;6148783;28;20244;-50
2023/03/29 13:38:53;;;;;;;1.23;0.80;;;;;;;5.08;70.68;98140.13;6144409;28;20231;-44
2023/03/29 13:42:07;;;;;;;0.87;0.73;;;;;;;5.14;70.95;98134.88;6143831;28;20377;-45
2023/03/29 13:45:25;;;;;;;0.87;0.80;;;;;;;5.29;70.88;98133.94;6144203;28;20366;-45
2023/03/29 13:48:44;;;;;;;0.93;0.73;;;;;;;5.35;71.57;98123.38;6145857;28;20232;-45
2023/03/29 13:52:03;;;;;;;1.20;0.87;;;;;;;5.53;70.39;98119.38;6148849;28;20241;-44
2023/03/29 13:55:24;;;;;;;1.20;0.80;;;;;;;5.59;70.08;98115.94;6148702;28;20239;-46
2023/03/29 13:58:36;;;;;;;0.80;0.80;;;;;;;5.65;70.09;98115.94;6147245;28;20241;-47
2023/03/29 14:01:45;;;;;;;1.07;0.77;;;;;;;5.70;69.38;98118.00;6146391;28;20330;-45
2023/03/29 14:04:51;;;;;;;0.83;0.80;;;;;;;5.58;70.25;98072.84;6144448;28;20240;-48
2023/03/29 14:07:54;;;;;;;1.23;1.03;;;;;;;5.93;69.84;98107.91;6144031;28;20658;-46
2023/03/29 14:11:01;;;;;;;1.20;1.10;;;;;;;5.95;69.48;98110.34;6127301;28;20715;-45
2023/03/29 14:14:06;;;;;;;1.03;0.93;;;;;;;6.07;69.29;98108.75;6142281;28;20237;-45
2023/03/29 14:17:21;;;;;;;1.37;1.07;;;;;;;6.02;69.25;98108.53;6146740;28;20568;-45
2023/03/29 14:20:24;;;;;;;1.20;1.10;;;;;;;6.00;69.52;98102.63;6142081;28;20267;-46
2023/03/29 14:23:30;;;;;;;1.77;1.10;;;;;;;5.99;69.63;98101.00;6148093;28;20229;-45
2023/03/29 14:26:34;;;;;;;2.10;1.23;;;;;;;5.89;68.93;98100.56;6154812;28;20239;-45
2023/03/29 14:29:37;;;;;;;0.97;0.87;;;;;;;5.77;70.26;98094.25;6150407;28;20245;-45
2023/03/29 14:32:39;;;;;;;1.50;1.13;;;;;;;5.62;70.67;98100.50;6148549;28;20256;-45
2023/03/29 14:35:41;;;;;;;1.20;1.07;;;;;;;5.63;70.83;98098.69;6148934;28;20233;-47
2023/03/29 14:38:58;;;;;;;1.40;1.30;;;;;;;5.55;70.77;98065.31;6148836;28;20744;-45
2023/03/29 14:42:01;;;;;;;1.53;1.07;;;;;;;5.81;70.23;98090.16;6148265;28;20393;-46
2023/03/29 14:45:05;;;;;;;1.17;1.07;;;;;;;5.84;70.24;98082.66;6148716;28;20235;-45
2023/03/29 14:48:11;;;;;;;1.93;1.10;;;;;;;5.88;70.31;98072.50;6148486;28;20267;-44
2023/03/29 14:51:13;;;;;;;2.43;1.10;;;;;;;5.94;70.11;98082.28;6149408;28;20236;-45
2023/03/29 14:54:20;;;;;;;1.50;1.03;;;;;;;5.91;69.79;98077.34;6147082;28;20234;-45
2023/03/29 14:57:26;;;;;;;1.40;1.00;;;;;;;5.90;70.18;98073.09;6150610;28;20769;-45
2023/03/29 15:00:43;;;;;;;1.43;1.20;;;;;;;5.88;69.88;98062.72;6144012;28;20238;-45
2023/03/29 15:03:56;;;;;;;2.13;1.40;;;;;;;5.92;69.68;98071.91;6148247;28;20237;-44
2023/03/29 15:06:58;;;;;;;1.20;1.10;;;;;;;5.94;69.40;98074.34;6148523;28;20249;-45